createdAt,value
2022-09-02T00:02:00.270Z,3.30
2022-09-02T00:05:01.788Z,3.03
2022-09-02T00:08:04.450Z,3.30
2022-09-02T00:11:08.380Z,3.07
2022-09-02T00:14:13.802Z,3.30
2022-09-02T00:17:15.230Z,3.47
2022-09-02T00:20:16.876Z,3.50
2022-09-02T00:23:18.619Z,3.40
2022-09-02T00:26:20.644Z,3.40
2022-09-02T00:29:22.074Z,3.00
2022-09-02T00:32:23.521Z,3.70
2022-09-02T00:35:25.839Z,3.50
2022-09-02T00:38:28.425Z,3.57
2022-09-02T00:41:30.182Z,3.20
2022-09-02T00:44:31.741Z,3.10
2022-09-02T00:47:33.838Z,3.37
2022-09-02T00:50:37.025Z,3.10
2022-09-02T00:53:43.606Z,3.40
2022-09-02T00:56:47.171Z,3.00
2022-09-02T00:59:59.439Z,3.10
2022-09-02T01:03:05.461Z,3.30
2022-09-02T01:06:07.752Z,3.10
2022-09-02T01:09:16.286Z,3.17
2022-09-02T01:12:18.113Z,3.30
2022-09-02T01:15:19.639Z,3.47
2022-09-02T01:18:25.525Z,3.10
2022-09-02T01:21:27.555Z,3.60
2022-09-02T01:24:31.849Z,3.20
2022-09-02T01:27:33.701Z,3.10
2022-09-02T01:30:37.541Z,3.10
2022-09-02T01:33:39.057Z,2.97
2022-09-02T01:36:42.008Z,3.40
2022-09-02T01:39:45.064Z,3.40
2022-09-02T01:42:47.489Z,3.20
2022-09-02T01:45:52.863Z,3.07
2022-09-02T01:48:55.522Z,3.40
2022-09-02T01:51:56.992Z,3.20
2022-09-02T01:54:58.879Z,3.20
2022-09-02T01:58:01.348Z,3.23
2022-09-02T02:01:03.984Z,3.60
2022-09-02T02:04:08.304Z,3.10
2022-09-02T02:07:22.514Z,3.20
2022-09-02T02:10:24.880Z,3.03
2022-09-02T02:13:26.988Z,3.77
2022-09-02T02:16:29.464Z,3.10
2022-09-02T02:19:31.296Z,2.80
2022-09-02T02:22:34.038Z,3.13
2022-09-02T02:25:35.544Z,3.10
2022-09-02T02:28:37.464Z,3.00
2022-09-02T02:31:40.496Z,2.90
2022-09-02T02:34:43.364Z,3.10
2022-09-02T02:37:48.994Z,2.97
2022-09-02T02:40:54.164Z,3.10
2022-09-02T02:43:55.708Z,2.80
2022-09-02T02:46:58.350Z,3.13
2022-09-02T02:50:00.206Z,2.90
2022-09-02T02:53:03.323Z,3.10
2022-09-02T02:56:06.437Z,3.00
2022-09-02T02:59:08.314Z,2.80
2022-09-02T03:02:09.968Z,3.00
2022-09-02T03:05:13.637Z,2.80
2022-09-02T03:08:16.577Z,2.97
2022-09-02T03:11:18.145Z,2.60
2022-09-02T03:14:19.672Z,2.50
2022-09-02T03:17:22.708Z,2.80
2022-09-02T03:20:25.326Z,2.87
2022-09-02T03:23:30.811Z,2.50
2022-09-02T03:26:33.822Z,3.13
2022-09-02T03:29:35.274Z,2.70
2022-09-02T03:32:37.364Z,2.60
2022-09-02T03:35:44.097Z,2.80
2022-09-02T03:38:46.845Z,2.93
2022-09-02T03:41:50.202Z,2.83
2022-09-02T03:44:51.829Z,2.90
2022-09-02T03:47:56.422Z,2.80
2022-09-02T03:51:01.882Z,2.70
2022-09-02T03:54:03.981Z,2.80
2022-09-02T03:57:06.080Z,2.70
2022-09-02T04:00:13.742Z,2.67
2022-09-02T04:03:18.962Z,2.43
2022-09-02T04:06:23.590Z,2.60
2022-09-02T04:09:29.510Z,2.87
2022-09-02T04:12:32.297Z,2.53
2022-09-02T04:15:34.164Z,2.80
2022-09-02T04:18:35.993Z,2.80
2022-09-02T04:21:39.604Z,2.80
2022-09-02T04:24:41.776Z,2.90
2022-09-02T04:27:43.310Z,2.80
2022-09-02T04:30:45.010Z,2.87
2022-09-02T04:33:48.166Z,2.80
2022-09-02T04:36:53.018Z,2.73
2022-09-02T04:39:55.110Z,2.87
2022-09-02T04:42:57.832Z,2.80
2022-09-02T04:45:59.363Z,2.90
2022-09-02T04:49:01.606Z,2.57
2022-09-02T04:52:03.985Z,2.90
2022-09-02T04:55:07.332Z,2.83
2022-09-02T04:58:10.854Z,2.83
2022-09-02T05:01:16.669Z,2.70
2022-09-02T05:04:19.362Z,2.80
2022-09-02T05:07:24.725Z,2.80
2022-09-02T05:10:28.175Z,2.60
2022-09-02T05:13:30.035Z,2.87
2022-09-02T05:16:36.792Z,2.70
2022-09-02T05:19:41.228Z,2.90
2022-09-02T05:22:43.258Z,2.70
2022-09-02T05:25:45.485Z,2.90
2022-09-02T05:28:47.425Z,2.90
2022-09-02T05:31:49.677Z,2.57
2022-09-02T05:34:51.523Z,2.50
2022-09-02T05:37:56.295Z,2.73
2022-09-02T05:41:14.531Z,2.30
2022-09-02T05:44:16.055Z,2.40
2022-09-02T05:47:18.619Z,2.53
2022-09-02T05:50:22.269Z,2.50
2022-09-02T05:53:26.676Z,2.90
2022-09-02T05:56:28.941Z,2.60
2022-09-02T05:59:32.985Z,2.30
2022-09-02T06:02:34.909Z,2.20
2022-09-02T06:05:38.304Z,2.70
2022-09-02T06:08:47.687Z,2.70
2022-09-02T06:11:50.529Z,2.70
2022-09-02T06:14:56.460Z,2.30
2022-09-02T06:17:59.698Z,2.30
2022-09-02T06:21:04.367Z,2.30
2022-09-02T06:24:11.292Z,2.30
2022-09-02T06:27:12.829Z,2.40
2022-09-02T06:30:18.850Z,2.20
2022-09-02T06:33:20.781Z,2.20
2022-09-02T06:36:28.281Z,2.50
2022-09-02T06:39:31.043Z,2.10
2022-09-02T06:42:33.671Z,2.47
2022-09-02T06:45:44.045Z,2.40
2022-09-02T06:48:45.735Z,2.40
2022-09-02T06:51:49.430Z,2.10
2022-09-02T06:54:52.161Z,2.20
2022-09-02T06:57:53.814Z,2.27
2022-09-02T07:00:55.504Z,2.50
2022-09-02T07:04:17.830Z,2.10
2022-09-02T07:07:19.591Z,2.30
2022-09-02T07:10:32.451Z,2.40
2022-09-02T07:13:34.793Z,2.17
2022-09-02T07:16:42.298Z,2.30
2022-09-02T07:19:44.900Z,2.30
2022-09-02T07:22:46.449Z,2.33
2022-09-02T07:25:50.851Z,2.10
2022-09-02T07:28:54.305Z,2.20
2022-09-02T07:31:58.122Z,2.23
2022-09-02T07:35:00.311Z,2.30
2022-09-02T07:38:04.164Z,2.30
2022-09-02T07:41:08.533Z,2.50
2022-09-02T07:44:11.343Z,2.20
2022-09-02T07:47:12.794Z,2.20
2022-09-02T07:50:20.736Z,2.30
2022-09-02T07:53:27.328Z,2.30
2022-09-02T07:56:29.205Z,2.10
2022-09-02T07:59:31.330Z,2.27
2022-09-02T08:02:34.884Z,1.90
2022-09-02T08:05:37.832Z,2.37
2022-09-02T08:08:40.252Z,2.00
2022-09-02T08:11:45.093Z,2.07
2022-09-02T08:14:46.514Z,1.97
2022-09-02T08:17:48.735Z,2.07
2022-09-02T08:20:50.886Z,2.50
2022-09-02T08:23:55.157Z,1.90
2022-09-02T08:26:56.627Z,2.20
2022-09-02T08:29:59.436Z,2.10
2022-09-02T08:33:00.938Z,1.80
2022-09-02T08:36:05.307Z,1.93
2022-09-02T08:39:06.779Z,1.77
2022-09-02T08:42:24.611Z,1.90
2022-09-02T08:45:37.086Z,1.90
2022-09-02T08:48:45.156Z,1.80
2022-09-02T08:51:53.294Z,1.80
2022-09-02T08:54:56.061Z,2.00
2022-09-02T08:57:57.932Z,1.70
2022-09-02T09:01:09.681Z,1.93
2022-09-02T09:04:19.024Z,1.67
2022-09-02T09:07:26.931Z,1.90
2022-09-02T09:10:38.971Z,1.93
2022-09-02T09:14:02.844Z,1.30
2022-09-02T09:17:20.278Z,1.70
2022-09-02T09:20:25.444Z,1.70
2022-09-02T09:23:35.969Z,1.43
2022-09-02T09:26:40.639Z,1.70
2022-09-02T09:29:42.270Z,1.37
2022-09-02T09:32:52.254Z,1.80
2022-09-02T09:35:55.276Z,1.40
2022-09-02T09:38:56.688Z,1.60
2022-09-02T09:42:01.714Z,1.40
2022-09-02T09:45:23.236Z,1.33
2022-09-02T09:48:30.957Z,1.50
2022-09-02T09:51:49.909Z,1.50
2022-09-02T09:55:12.653Z,1.60
2022-09-02T09:58:14.205Z,1.57
2022-09-02T10:01:20.239Z,1.47
2022-09-02T10:04:46.848Z,1.40
2022-09-02T10:07:55.576Z,1.33
2022-09-02T10:11:08.299Z,1.63
2022-09-02T10:14:11.319Z,1.13
2022-09-02T10:17:23.542Z,1.10
2022-09-02T10:21:15.785Z,1.37
2022-09-02T10:24:27.088Z,1.33
2022-09-02T10:27:40.789Z,1.97
2022-09-02T10:31:02.475Z,1.07
2022-09-02T10:34:42.489Z,1.10
2022-09-02T10:38:11.860Z,1.07
2022-09-02T10:44:59.747Z,1.20
2022-09-02T10:48:13.174Z,1.27
2022-09-02T10:51:39.487Z,1.30
2022-09-02T10:54:53.868Z,1.23
2022-09-02T10:58:06.062Z,1.30
2022-09-02T11:01:12.179Z,1.10
2022-09-02T11:04:25.070Z,1.23
2022-09-02T11:07:33.976Z,1.10
2022-09-02T11:10:43.685Z,1.30
2022-09-02T11:14:18.585Z,1.50
2022-09-02T11:17:44.205Z,1.10
2022-09-02T11:20:58.972Z,1.37
2022-09-02T11:24:13.072Z,1.30
2022-09-02T11:27:43.446Z,1.30
2022-09-02T11:34:10.267Z,1.50
2022-09-02T11:37:24.504Z,1.10
2022-09-02T11:40:37.281Z,1.40
2022-09-02T11:43:52.773Z,1.33
2022-09-02T11:47:16.158Z,1.02
2022-09-02T11:50:50.315Z,1.20
2022-09-02T11:53:54.993Z,1.20
2022-09-02T11:57:04.102Z,1.17
2022-09-02T12:00:11.356Z,1.10
2022-09-02T12:03:39.158Z,1.10
2022-09-02T12:07:21.165Z,1.00
2022-09-02T12:10:47.612Z,1.20
2022-09-02T12:17:09.566Z,1.58
2022-09-02T12:20:36.608Z,1.00
2022-09-02T12:24:06.877Z,1.30
2022-09-02T12:27:11.436Z,1.20
2022-09-02T12:30:13.195Z,1.17
2022-09-02T12:33:30.528Z,1.38
2022-09-02T12:36:38.938Z,1.17
2022-09-02T12:39:40.268Z,1.10
2022-09-02T12:42:46.682Z,1.30
2022-09-02T12:45:50.642Z,1.23
2022-09-02T12:49:03.637Z,1.10
2022-09-02T12:52:08.389Z,1.10
2022-09-02T12:55:15.813Z,1.10
2022-09-02T12:58:22.202Z,2.50
2022-09-02T13:01:47.800Z,1.90
2022-09-02T13:05:18.496Z,1.30
2022-09-02T13:08:38.589Z,1.55
2022-09-02T13:11:57.344Z,1.23
2022-09-02T13:15:08.673Z,1.23
2022-09-02T13:18:30.796Z,1.20
2022-09-02T13:21:41.126Z,1.02
2022-09-02T13:25:14.157Z,1.10
2022-09-02T13:28:50.088Z,1.20
2022-09-02T13:32:10.675Z,1.20
2022-09-02T13:35:24.587Z,1.20
2022-09-02T13:38:28.981Z,1.23
2022-09-02T13:41:32.811Z,1.27
2022-09-02T13:44:34.830Z,1.17
2022-09-02T13:47:36.962Z,1.10
2022-09-02T13:50:43.826Z,1.00
2022-09-02T13:57:13.242Z,1.20
2022-09-02T14:00:25.590Z,1.20
2022-09-02T14:03:27.463Z,1.30
2022-09-02T14:06:33.356Z,1.20
2022-09-02T14:09:35.560Z,1.10
2022-09-02T14:12:39.196Z,1.25
2022-09-02T14:15:40.713Z,1.00
2022-09-02T14:19:07.957Z,0.93
2022-09-02T14:22:27.915Z,1.30
2022-09-02T14:25:49.313Z,1.23
2022-09-02T14:28:52.170Z,1.15
2022-09-02T14:32:10.626Z,1.20
2022-09-02T14:35:18.173Z,0.93
2022-09-02T14:38:24.242Z,1.10
2022-09-02T14:41:27.214Z,1.08
2022-09-02T14:44:34.572Z,1.20
2022-09-02T14:47:39.074Z,1.13
2022-09-02T14:50:41.420Z,1.00
2022-09-02T14:53:43.785Z,1.02
2022-09-02T14:56:52.947Z,1.10
2022-09-02T14:59:56.923Z,1.10
2022-09-02T15:03:00.193Z,1.17
2022-09-02T15:06:03.433Z,1.10
2022-09-02T15:09:04.989Z,1.08
2022-09-02T15:12:06.608Z,1.02
2022-09-02T15:15:08.437Z,1.05
2022-09-02T15:18:09.895Z,1.20
2022-09-02T15:21:11.500Z,1.10
2022-09-02T15:24:13.102Z,1.30
2022-09-02T15:27:15.472Z,1.20
2022-09-02T15:30:18.741Z,1.15
2022-09-02T15:33:20.241Z,1.00
2022-09-02T15:36:23.446Z,1.10
2022-09-02T15:39:25.970Z,1.10
2022-09-02T15:42:27.448Z,1.25
2022-09-02T15:45:28.962Z,1.30
2022-09-02T15:48:32.278Z,1.10
2022-09-02T15:51:35.320Z,1.13
2022-09-02T15:54:36.764Z,1.20
2022-09-02T15:57:38.188Z,1.20
2022-09-02T16:00:40.665Z,1.05
2022-09-02T16:03:45.208Z,1.20
2022-09-02T16:06:49.045Z,1.20
2022-09-02T16:09:50.509Z,1.27
2022-09-02T16:12:51.950Z,1.10
2022-09-02T16:16:00.502Z,1.20
2022-09-02T16:19:02.893Z,1.20
2022-09-02T16:22:04.522Z,1.13
2022-09-02T16:25:06.608Z,1.02
2022-09-02T16:28:08.101Z,1.10
2022-09-02T16:31:11.215Z,1.20
2022-09-02T16:34:18.008Z,1.17
2022-09-02T16:37:19.494Z,1.08
2022-09-02T16:40:21.421Z,1.10
2022-09-02T16:43:24.391Z,1.10
2022-09-02T16:46:27.176Z,1.25
2022-09-02T16:49:28.720Z,1.20
2022-09-02T16:52:32.131Z,1.35
2022-09-02T16:55:33.558Z,1.80
2022-09-02T16:58:40.579Z,1.10
2022-09-02T17:01:42.131Z,1.08
2022-09-02T17:04:43.612Z,1.08
2022-09-02T17:07:45.423Z,1.15
2022-09-02T17:10:46.829Z,1.00
2022-09-02T17:13:58.561Z,0.90
2022-09-02T17:17:00.076Z,1.17
2022-09-02T17:20:01.553Z,1.00
2022-09-02T17:23:04.440Z,1.10
2022-09-02T17:26:05.974Z,1.30
2022-09-02T17:29:26.281Z,1.60
2022-09-02T17:32:34.290Z,1.10
2022-09-02T17:35:35.737Z,1.33
2022-09-02T17:38:37.244Z,1.17
2022-09-02T17:41:57.551Z,1.15
2022-09-02T17:44:59.088Z,1.38
2022-09-02T17:48:19.249Z,1.55
2022-09-02T17:51:21.966Z,1.60
2022-09-02T17:54:23.588Z,1.40
2022-09-02T17:57:50.001Z,1.15
2022-09-02T18:00:58.754Z,1.13
2022-09-02T18:04:39.954Z,1.15
2022-09-02T18:08:05.789Z,1.20
2022-09-02T18:11:07.821Z,1.00
2022-09-02T18:14:23.414Z,1.10
2022-09-02T18:17:35.201Z,1.08
2022-09-02T18:20:45.218Z,1.17
2022-09-02T18:24:37.420Z,1.30
2022-09-02T18:27:52.638Z,1.25
2022-09-02T18:31:20.352Z,1.30
2022-09-02T18:34:40.240Z,1.10
2022-09-02T18:37:53.506Z,1.40
2022-09-02T18:41:25.756Z,1.07
2022-09-02T18:44:46.589Z,1.20
2022-09-02T18:47:52.592Z,1.20
2022-09-02T18:51:02.695Z,1.10
2022-09-02T18:54:15.229Z,1.20
2022-09-02T18:57:17.135Z,1.23
2022-09-02T19:00:22.101Z,1.42
2022-09-02T19:03:23.765Z,1.60
2022-09-02T19:06:34.261Z,1.33
2022-09-02T19:09:36.268Z,1.30
2022-09-02T19:12:39.022Z,1.40
2022-09-02T19:15:40.786Z,1.30
2022-09-02T19:18:42.726Z,1.33
2022-09-02T19:21:51.707Z,1.40
2022-09-02T19:24:58.486Z,1.50
2022-09-02T19:28:02.556Z,1.23
2022-09-02T19:31:04.689Z,1.30
2022-09-02T19:34:08.142Z,1.40
2022-09-02T19:37:11.841Z,1.30
2022-09-02T19:40:17.945Z,1.57
2022-09-02T19:43:20.189Z,1.40
2022-09-02T19:47:04.173Z,1.40
2022-09-02T19:49:44.052Z,1.10
2022-09-02T19:52:45.974Z,1.00
2022-09-02T19:55:47.738Z,1.30
2022-09-02T19:58:49.184Z,1.10
2022-09-02T20:01:50.640Z,1.30
2022-09-02T20:04:53.142Z,1.10
2022-09-02T20:07:54.941Z,1.30
2022-09-02T20:11:05.002Z,1.10
2022-09-02T20:14:06.432Z,1.10
2022-09-02T20:17:14.676Z,1.37
2022-09-02T20:20:19.578Z,1.13
2022-09-02T20:23:22.381Z,1.20
2022-09-02T20:26:49.842Z,1.27
2022-09-02T20:30:15.923Z,1.30
2022-09-02T20:33:19.831Z,1.10
2022-09-02T20:36:34.051Z,1.20
2022-09-02T20:39:48.594Z,1.13
2022-09-02T20:43:12.580Z,1.20
2022-09-02T20:46:14.151Z,1.30
2022-09-02T20:49:35.744Z,1.00
2022-09-02T20:52:46.304Z,1.27
2022-09-02T20:55:54.910Z,1.40
2022-09-02T20:59:10.484Z,1.23
2022-09-02T21:02:14.995Z,1.00
2022-09-02T21:05:27.914Z,1.27
2022-09-02T21:08:38.862Z,1.07
2022-09-02T21:11:49.759Z,1.27
2022-09-02T21:15:01.849Z,1.10
2022-09-02T21:18:29.442Z,1.20
2022-09-02T21:21:40.237Z,1.23
2022-09-02T21:25:06.552Z,1.33
2022-09-02T21:28:14.926Z,1.23
2022-09-02T21:31:29.221Z,1.10
2022-09-02T21:34:39.941Z,1.07
2022-09-02T21:37:44.432Z,1.10
2022-09-02T21:41:18.885Z,1.10
2022-09-02T21:44:41.802Z,1.13
2022-09-02T21:47:49.914Z,1.23
2022-09-02T21:50:58.571Z,1.00
2022-09-02T21:54:28.915Z,1.33
2022-09-02T21:58:15.268Z,1.30
2022-09-02T22:01:42.208Z,1.20
2022-09-02T22:05:03.866Z,1.20
2022-09-02T22:08:20.814Z,1.10
2022-09-02T22:11:36.862Z,1.30
2022-09-02T22:14:53.790Z,0.90
2022-09-02T22:18:10.879Z,1.00
2022-09-02T22:21:50.910Z,1.00
2022-09-02T22:24:55.042Z,1.20
2022-09-02T22:28:12.532Z,1.37
2022-09-02T22:31:19.459Z,1.30
2022-09-02T22:34:23.690Z,1.00
2022-09-02T22:37:39.998Z,1.13
2022-09-02T22:40:48.045Z,1.10
2022-09-02T22:43:59.081Z,1.20
2022-09-02T22:47:25.090Z,1.10
2022-09-02T22:50:50.450Z,1.00
2022-09-02T22:53:51.859Z,1.37
2022-09-02T22:57:09.988Z,1.20
2022-09-02T23:00:16.718Z,1.00
2022-09-02T23:03:24.056Z,1.40
2022-09-02T23:06:28.089Z,1.07
2022-09-02T23:09:31.658Z,1.33
2022-09-02T23:12:45.903Z,1.33
2022-09-02T23:15:59.625Z,1.07
2022-09-02T23:19:22.882Z,1.17
2022-09-02T23:22:36.566Z,1.20
2022-09-02T23:26:12.135Z,1.27
2022-09-02T23:29:26.981Z,1.20
2022-09-02T23:32:39.289Z,1.20
2022-09-02T23:35:59.809Z,1.20
2022-09-02T23:39:24.960Z,1.07
2022-09-02T23:42:26.789Z,1.20
2022-09-02T23:45:31.941Z,1.10
2022-09-02T23:49:05.339Z,1.37
2022-09-02T23:52:23.828Z,1.20
2022-09-02T23:55:40.072Z,1.20
2022-09-02T23:59:29.050Z,1.40
